createdAt,value
2023-04-15T00:00:33.977Z,3.07
2023-04-15T00:03:21.112Z,2.57
2023-04-15T00:06:08.419Z,2.63
2023-04-15T00:08:55.720Z,2.50
2023-04-15T00:11:42.715Z,2.57
2023-04-15T00:14:29.679Z,2.80
2023-04-15T00:17:17.148Z,2.30
2023-04-15T00:20:06.315Z,2.70
2023-04-15T00:22:53.542Z,2.73
2023-04-15T00:25:40.752Z,2.60
2023-04-15T00:28:27.979Z,2.70
2023-04-15T00:31:15.327Z,2.60
2023-04-15T00:34:02.530Z,2.37
2023-04-15T00:36:51.406Z,2.50
2023-04-15T00:39:38.428Z,2.83
2023-04-15T00:42:26.040Z,2.97
2023-04-15T00:45:13.881Z,3.10
2023-04-15T00:48:00.995Z,2.70
2023-04-15T00:50:47.973Z,2.57
2023-04-15T00:53:35.211Z,2.57
2023-04-15T00:56:24.457Z,2.77
2023-04-15T00:59:11.817Z,2.83
2023-04-15T01:01:59.102Z,2.77
2023-04-15T01:04:46.087Z,3.10
2023-04-15T01:07:33.176Z,2.77
2023-04-15T01:10:20.132Z,2.97
2023-04-15T01:13:07.169Z,2.87
2023-04-15T01:15:56.090Z,2.83
2023-04-15T01:18:43.246Z,2.80
2023-04-15T01:21:30.223Z,2.83
2023-04-15T01:24:18.994Z,2.87
2023-04-15T01:27:06.030Z,3.10
2023-04-15T01:29:53.018Z,2.80
2023-04-15T01:32:40.178Z,3.20
2023-04-15T01:35:46.347Z,3.20
2023-04-15T01:38:33.348Z,3.00
2023-04-15T01:41:27.486Z,3.37
2023-04-15T01:44:15.713Z,3.40
2023-04-15T01:47:03.989Z,3.20
2023-04-15T01:49:52.630Z,2.93
2023-04-15T01:52:41.069Z,2.93
2023-04-15T01:55:29.273Z,3.33
2023-04-15T01:58:18.165Z,3.47
2023-04-15T02:01:06.989Z,3.80
2023-04-15T02:03:55.212Z,3.60
2023-04-15T02:06:43.856Z,4.07
2023-04-15T02:09:32.023Z,4.23
2023-04-15T02:12:20.176Z,4.17
2023-04-15T02:15:09.170Z,4.40
2023-04-15T02:17:57.767Z,4.37
2023-04-15T02:20:46.974Z,4.60
2023-04-15T02:23:35.249Z,4.53
2023-04-15T02:26:25.274Z,5.23
2023-04-15T02:29:15.785Z,4.73
2023-04-15T02:32:04.434Z,5.40
2023-04-15T02:34:53.101Z,4.90
2023-04-15T02:37:43.541Z,5.30
2023-04-15T02:40:32.376Z,4.87
2023-04-15T02:43:20.594Z,5.13
2023-04-15T02:46:08.948Z,5.07
2023-04-15T02:48:57.178Z,5.10
2023-04-15T02:51:49.667Z,4.80
2023-04-15T02:54:37.917Z,5.40
2023-04-15T02:57:32.051Z,5.30
2023-04-15T03:00:26.429Z,5.10
2023-04-15T03:03:15.266Z,5.37
2023-04-15T03:06:03.740Z,5.33
2023-04-15T03:08:52.031Z,5.17
2023-04-15T03:11:42.021Z,5.90
2023-04-15T03:14:31.336Z,5.13
2023-04-15T03:17:19.539Z,5.63
2023-04-15T03:20:08.778Z,5.63
2023-04-15T03:22:57.111Z,5.43
2023-04-15T03:25:46.640Z,5.40
2023-04-15T03:28:36.443Z,5.60
2023-04-15T03:31:24.743Z,5.27
2023-04-15T03:34:12.986Z,5.37
2023-04-15T03:37:01.395Z,5.63
2023-04-15T03:39:49.568Z,5.50
2023-04-15T03:42:37.750Z,5.20
2023-04-15T03:45:26.078Z,5.83
2023-04-15T03:48:17.930Z,5.23
2023-04-15T03:51:06.579Z,4.97
2023-04-15T03:53:54.760Z,4.80
2023-04-15T03:56:42.969Z,4.63
2023-04-15T03:59:31.345Z,4.57
2023-04-15T04:02:19.601Z,4.70
2023-04-15T04:05:08.242Z,4.87
2023-04-15T04:07:56.477Z,4.73
2023-04-15T04:10:44.683Z,5.17
2023-04-15T04:13:32.960Z,4.47
2023-04-15T04:16:21.281Z,4.40
2023-04-15T04:19:09.560Z,4.43
2023-04-15T04:21:57.789Z,4.57
2023-04-15T04:24:46.191Z,4.33
2023-04-15T04:27:34.750Z,4.50
2023-04-15T04:30:23.144Z,4.33
2023-04-15T04:33:11.684Z,4.27
2023-04-15T04:35:59.844Z,4.83
2023-04-15T04:38:48.025Z,4.20
2023-04-15T04:41:36.241Z,4.33
2023-04-15T04:44:24.398Z,4.27
2023-04-15T04:47:12.588Z,4.03
2023-04-15T04:50:00.766Z,4.10
2023-04-15T04:52:48.944Z,4.37
2023-04-15T04:55:37.155Z,4.30
2023-04-15T04:58:25.805Z,4.53
2023-04-15T05:01:14.061Z,4.10
2023-04-15T05:04:02.413Z,4.50
2023-04-15T05:06:50.618Z,3.97
2023-04-15T05:09:38.829Z,4.37
2023-04-15T05:12:27.127Z,4.27
2023-04-15T05:15:15.326Z,4.30
2023-04-15T05:18:03.551Z,4.10
2023-04-15T05:20:51.732Z,4.20
2023-04-15T05:23:40.040Z,4.30
2023-04-15T05:26:28.262Z,4.10
2023-04-15T05:29:16.690Z,4.50
2023-04-15T05:32:05.163Z,4.37
2023-04-15T05:34:53.375Z,4.90
2023-04-15T05:37:41.630Z,5.20
2023-04-15T05:40:30.758Z,4.50
2023-04-15T05:43:18.927Z,4.20
2023-04-15T05:46:08.531Z,3.87
2023-04-15T05:48:56.916Z,4.13
2023-04-15T05:51:45.707Z,4.37
2023-04-15T05:54:33.980Z,4.30
2023-04-15T05:57:22.153Z,4.03
2023-04-15T06:00:10.955Z,4.20
2023-04-15T06:02:59.290Z,4.33
2023-04-15T06:05:47.595Z,4.67
2023-04-15T06:08:35.846Z,5.10
2023-04-15T06:11:24.329Z,4.80
2023-04-15T06:14:12.520Z,4.20
2023-04-15T06:17:00.694Z,4.30
2023-04-15T06:19:50.372Z,4.53
2023-04-15T06:22:41.576Z,3.67
2023-04-15T06:25:29.804Z,3.77
2023-04-15T06:28:17.993Z,3.90
2023-04-15T06:31:06.414Z,3.90
2023-04-15T06:33:54.736Z,3.60
2023-04-15T06:36:42.969Z,4.00
2023-04-15T06:39:31.199Z,3.13
2023-04-15T06:42:19.381Z,5.90
2023-04-15T06:45:08.680Z,7.40
2023-04-15T06:47:57.042Z,9.73
2023-04-15T06:50:45.263Z,11.73
2023-04-15T06:53:35.535Z,10.67
2023-04-15T06:56:23.808Z,9.23
2023-04-15T06:59:12.851Z,13.40
2023-04-15T07:02:01.446Z,7.37
2023-04-15T07:04:49.702Z,5.13
2023-04-15T07:07:38.283Z,4.77
2023-04-15T07:10:26.507Z,4.07
2023-04-15T07:13:14.651Z,3.97
2023-04-15T07:16:02.855Z,3.70
2023-04-15T07:18:51.057Z,3.80
2023-04-15T07:21:41.707Z,4.40
2023-04-15T07:24:30.167Z,3.60
2023-04-15T07:27:18.400Z,3.63
2023-04-15T07:30:07.186Z,3.40
2023-04-15T07:32:55.466Z,3.50
2023-04-15T07:35:43.675Z,3.70
2023-04-15T07:38:31.824Z,3.57
2023-04-15T07:41:20.446Z,3.40
2023-04-15T07:44:09.233Z,3.03
2023-04-15T07:46:57.638Z,3.60
2023-04-15T07:49:46.327Z,3.67
2023-04-15T07:52:39.134Z,3.17
2023-04-15T07:55:28.300Z,3.80
2023-04-15T07:58:16.595Z,3.40
2023-04-15T08:01:05.311Z,2.97
2023-04-15T08:03:53.606Z,3.10
2023-04-15T08:06:41.844Z,2.97
2023-04-15T08:09:30.489Z,2.90
2023-04-15T08:12:18.834Z,2.63
2023-04-15T08:15:08.319Z,3.17
2023-04-15T08:17:56.651Z,3.13
2023-04-15T08:20:44.883Z,2.90
2023-04-15T08:23:33.550Z,3.10
2023-04-15T08:26:22.125Z,3.30
2023-04-15T08:29:10.536Z,2.80
2023-04-15T08:32:00.698Z,3.00
2023-04-15T08:34:49.042Z,3.03
2023-04-15T08:37:37.242Z,2.80
2023-04-15T08:40:35.749Z,2.50
2023-04-15T08:43:28.813Z,2.30
2023-04-15T08:46:17.558Z,3.00
2023-04-15T08:49:05.792Z,2.90
2023-04-15T08:51:56.567Z,2.80
2023-04-15T08:54:44.901Z,2.80
2023-04-15T08:57:33.441Z,2.70
2023-04-15T09:00:22.758Z,2.43
2023-04-15T09:03:11.479Z,2.33
2023-04-15T09:05:59.818Z,2.40
2023-04-15T09:08:48.074Z,2.90
2023-04-15T09:11:36.647Z,2.50
2023-04-15T09:14:24.849Z,2.17
2023-04-15T09:17:13.088Z,2.00
2023-04-15T09:20:12.998Z,2.20
2023-04-15T09:23:13.231Z,2.00
2023-04-15T09:26:02.765Z,2.00
2023-04-15T09:28:51.249Z,1.80
2023-04-15T09:31:40.576Z,2.23
2023-04-15T09:34:37.179Z,2.37
2023-04-15T09:37:36.531Z,2.50
2023-04-15T09:40:38.951Z,2.43
2023-04-15T09:43:40.743Z,2.10
2023-04-15T09:46:42.710Z,2.00
2023-04-15T09:49:30.997Z,2.40
2023-04-15T09:52:19.225Z,2.47
2023-04-15T09:55:07.818Z,2.10
2023-04-15T09:57:56.078Z,2.50
2023-04-15T10:00:44.240Z,2.33
2023-04-15T10:03:35.505Z,2.30
2023-04-15T10:06:27.014Z,1.93
2023-04-15T10:09:15.220Z,2.40
2023-04-15T10:12:04.771Z,2.07
2023-04-15T10:14:59.308Z,1.93
2023-04-15T10:17:50.445Z,2.13
2023-04-15T10:20:38.990Z,2.03
2023-04-15T10:23:27.835Z,1.87
2023-04-15T10:26:17.686Z,2.17
2023-04-15T10:29:06.689Z,1.97
2023-04-15T10:31:59.378Z,2.30
2023-04-15T10:34:49.626Z,2.20
2023-04-15T10:37:39.229Z,1.73
2023-04-15T10:40:32.564Z,2.10
2023-04-15T10:43:29.732Z,1.77
2023-04-15T10:46:36.804Z,1.70
2023-04-15T10:49:25.918Z,1.70
2023-04-15T10:52:16.773Z,1.40
2023-04-15T10:55:10.902Z,1.43
2023-04-15T10:58:03.735Z,1.40
2023-04-15T11:00:53.753Z,1.60
2023-04-15T11:03:43.548Z,1.47
2023-04-15T11:06:45.489Z,1.23
2023-04-15T11:09:34.543Z,1.40
2023-04-15T11:12:22.730Z,1.40
2023-04-15T11:15:26.114Z,1.70
2023-04-15T11:18:24.741Z,1.87
2023-04-15T11:21:12.911Z,2.20
2023-04-15T11:24:02.259Z,1.80
2023-04-15T11:26:51.084Z,1.50
2023-04-15T11:29:40.043Z,1.37
2023-04-15T11:32:28.219Z,1.50
2023-04-15T11:35:18.157Z,1.43
2023-04-15T11:38:10.050Z,1.40
2023-04-15T11:40:58.407Z,1.60
2023-04-15T11:43:46.984Z,1.03
2023-04-15T11:46:35.340Z,1.13
2023-04-15T11:49:34.919Z,1.50
2023-04-15T11:52:22.497Z,0.97
2023-04-15T11:55:09.518Z,1.20
2023-04-15T11:58:23.823Z,1.47
2023-04-15T12:01:11.185Z,1.63
2023-04-15T12:03:59.926Z,1.40
2023-04-15T12:06:47.014Z,1.20
2023-04-15T12:09:38.119Z,1.27
2023-04-15T12:12:29.203Z,1.27
2023-04-15T12:15:16.254Z,1.00
2023-04-15T12:18:03.254Z,1.23
2023-04-15T12:20:52.689Z,1.30
2023-04-15T12:23:53.338Z,1.30
2023-04-15T12:26:49.114Z,1.00
2023-04-15T12:29:38.263Z,0.80
2023-04-15T12:32:25.259Z,0.80
2023-04-15T12:35:12.294Z,1.07
2023-04-15T12:37:59.247Z,1.03
2023-04-15T12:40:47.197Z,1.00
2023-04-15T12:43:34.106Z,0.90
2023-04-15T12:46:21.679Z,0.70
2023-04-15T12:49:09.295Z,0.90
2023-04-15T12:51:59.468Z,1.00
2023-04-15T12:54:46.448Z,1.00
2023-04-15T12:57:33.593Z,0.77
2023-04-15T13:00:20.615Z,0.80
2023-04-15T13:03:07.647Z,0.70
2023-04-15T13:05:54.736Z,0.80
2023-04-15T13:08:47.957Z,0.70
2023-04-15T13:11:42.294Z,0.60
2023-04-15T13:14:29.245Z,0.80
2023-04-15T13:17:18.892Z,0.73
2023-04-15T13:20:06.240Z,0.80
2023-04-15T13:22:54.109Z,0.83
2023-04-15T13:25:41.152Z,0.80
2023-04-15T13:28:28.208Z,0.90
2023-04-15T13:31:15.193Z,0.70
2023-04-15T13:34:02.350Z,0.70
2023-04-15T13:36:49.432Z,0.83
2023-04-15T13:39:36.552Z,0.67
2023-04-15T13:42:24.157Z,0.70
2023-04-15T13:45:11.394Z,0.87
2023-04-15T13:47:58.498Z,0.67
2023-04-15T13:50:45.670Z,0.70
2023-04-15T13:53:37.851Z,0.73
2023-04-15T13:56:26.023Z,1.07
2023-04-15T13:59:13.027Z,1.60
2023-04-15T14:02:00.035Z,0.80
2023-04-15T14:04:47.079Z,0.77
2023-04-15T14:07:34.222Z,0.63
2023-04-15T14:10:21.320Z,0.67
2023-04-15T14:13:08.364Z,0.90
2023-04-15T14:15:56.957Z,0.80
2023-04-15T14:18:44.588Z,0.80
2023-04-15T14:21:32.515Z,0.80
2023-04-15T14:24:19.527Z,0.70
2023-04-15T14:27:08.567Z,0.73
2023-04-15T14:29:55.639Z,0.70
2023-04-15T14:32:42.614Z,0.63
2023-04-15T14:35:29.715Z,0.67
2023-04-15T14:38:16.767Z,0.63
2023-04-15T14:41:04.705Z,0.50
2023-04-15T14:43:51.770Z,0.70
2023-04-15T14:46:40.674Z,0.60
2023-04-15T14:49:27.863Z,0.80
2023-04-15T14:52:14.908Z,0.70
2023-04-15T14:55:01.930Z,0.70
2023-04-15T14:57:48.984Z,0.80
2023-04-15T15:00:39.230Z,0.80
2023-04-15T15:03:26.430Z,0.83
2023-04-15T15:06:13.728Z,1.00
2023-04-15T15:09:02.086Z,1.00
2023-04-15T15:11:49.816Z,1.30
2023-04-15T15:14:36.885Z,1.17
2023-04-15T15:17:24.038Z,1.20
2023-04-15T15:20:12.174Z,1.10
2023-04-15T15:22:59.174Z,1.20
2023-04-15T15:25:47.294Z,0.97
2023-04-15T15:28:34.906Z,1.20
2023-04-15T15:31:22.115Z,1.10
2023-04-15T15:34:09.116Z,1.80
2023-04-15T15:36:56.881Z,1.50
2023-04-15T15:39:43.853Z,1.40
2023-04-15T15:42:34.585Z,1.30
2023-04-15T15:45:21.648Z,1.20
2023-04-15T15:48:08.610Z,1.27
2023-04-15T15:50:55.720Z,1.33
2023-04-15T15:53:44.617Z,1.70
2023-04-15T15:56:31.711Z,1.37
2023-04-15T15:59:18.698Z,1.40
2023-04-15T16:02:05.917Z,1.20
2023-04-15T16:04:53.072Z,1.40
2023-04-15T16:07:40.134Z,1.57
2023-04-15T16:10:27.542Z,1.60
2023-04-15T16:13:14.528Z,1.60
2023-04-15T16:16:01.487Z,1.50
2023-04-15T16:18:48.463Z,1.30
2023-04-15T16:21:35.506Z,1.90
2023-04-15T16:24:22.617Z,1.80
2023-04-15T16:27:14.502Z,1.60
2023-04-15T16:30:01.938Z,2.20
2023-04-15T16:32:48.962Z,2.17
2023-04-15T16:35:36.065Z,2.33
2023-04-15T16:38:23.097Z,3.70
2023-04-15T16:41:10.040Z,3.10
2023-04-15T16:43:58.525Z,2.90
2023-04-15T16:46:45.540Z,4.20
2023-04-15T16:49:32.596Z,4.40
2023-04-15T16:52:19.575Z,4.57
2023-04-15T16:55:06.857Z,3.00
2023-04-15T16:58:02.772Z,2.27
2023-04-15T17:00:51.284Z,2.20
2023-04-15T17:03:38.716Z,2.07
2023-04-15T17:06:26.693Z,2.00
2023-04-15T17:09:13.707Z,1.90
2023-04-15T17:12:01.777Z,1.70
2023-04-15T17:14:48.766Z,1.80
2023-04-15T17:17:35.954Z,2.20
2023-04-15T17:20:22.963Z,2.07
2023-04-15T17:23:10.181Z,2.93
2023-04-15T17:25:57.274Z,3.43
2023-04-15T17:28:45.038Z,2.97
2023-04-15T17:31:35.810Z,2.70
2023-04-15T17:34:50.773Z,1.90
2023-04-15T17:37:58.164Z,2.27
2023-04-15T17:41:07.274Z,2.00
2023-04-15T17:44:14.202Z,1.93
2023-04-15T17:47:21.272Z,1.50
2023-04-15T17:50:28.219Z,1.70
2023-04-15T17:53:35.478Z,1.83
2023-04-15T17:56:42.474Z,2.90
2023-04-15T17:59:49.527Z,2.83
2023-04-15T18:02:56.785Z,2.03
2023-04-15T18:06:04.040Z,2.00
2023-04-15T18:09:11.282Z,2.60
2023-04-15T18:12:18.268Z,2.10
2023-04-15T18:15:25.558Z,2.30
2023-04-15T18:18:33.715Z,2.20
2023-04-15T18:21:20.679Z,2.40
2023-04-15T18:24:07.797Z,2.03
2023-04-15T18:26:55.038Z,2.30
2023-04-15T18:29:42.893Z,2.20
2023-04-15T18:32:32.557Z,2.10
2023-04-15T18:35:20.619Z,2.50
2023-04-15T18:38:07.940Z,2.07
2023-04-15T18:40:54.880Z,2.27
2023-04-15T18:43:42.121Z,1.83
2023-04-15T18:46:29.333Z,2.17
2023-04-15T18:49:16.314Z,2.07
2023-04-15T18:52:04.079Z,3.73
2023-04-15T18:54:51.160Z,2.80
2023-04-15T18:57:42.533Z,2.17
2023-04-15T19:00:31.594Z,2.03
2023-04-15T19:03:18.676Z,2.33
2023-04-15T19:06:05.871Z,2.00
2023-04-15T19:08:53.266Z,2.40
2023-04-15T19:11:40.343Z,2.00
2023-04-15T19:14:27.413Z,2.20
2023-04-15T19:17:14.527Z,2.20
2023-04-15T19:20:01.793Z,2.27
2023-04-15T19:22:48.863Z,2.10
2023-04-15T19:25:36.457Z,2.10
2023-04-15T19:28:23.411Z,2.20
2023-04-15T19:31:10.424Z,2.50
2023-04-15T19:33:57.498Z,2.43
2023-04-15T19:36:44.564Z,2.87
2023-04-15T19:39:31.673Z,2.60
2023-04-15T19:42:18.726Z,2.60
2023-04-15T19:45:06.276Z,3.00
2023-04-15T19:47:54.189Z,2.33
2023-04-15T19:50:41.255Z,2.60
2023-04-15T19:53:29.227Z,3.07
2023-04-15T19:56:16.390Z,3.43
2023-04-15T19:59:03.591Z,3.57
2023-04-15T20:01:51.083Z,3.10
2023-04-15T20:04:38.271Z,3.07
2023-04-15T20:07:25.263Z,3.40
2023-04-15T20:10:13.307Z,2.97
2023-04-15T20:13:00.645Z,3.13
2023-04-15T20:15:47.654Z,3.60
2023-04-15T20:18:34.849Z,3.17
2023-04-15T20:21:21.853Z,3.33
2023-04-15T20:24:08.930Z,3.20
2023-04-15T20:26:57.479Z,2.93
2023-04-15T20:29:44.453Z,3.00
2023-04-15T20:32:35.911Z,3.17
2023-04-15T20:35:23.523Z,3.13
2023-04-15T20:38:10.544Z,3.03
2023-04-15T20:40:58.121Z,3.23
2023-04-15T20:43:45.076Z,3.60
2023-04-15T20:46:32.056Z,3.37
2023-04-15T20:49:19.047Z,3.20
2023-04-15T20:52:07.733Z,3.60
2023-04-15T20:54:54.681Z,3.70
2023-04-15T20:58:00.090Z,3.60
2023-04-15T21:00:47.098Z,3.50
2023-04-15T21:03:34.162Z,3.30
2023-04-15T21:06:21.294Z,3.70
2023-04-15T21:09:08.250Z,2.90
2023-04-15T21:12:00.626Z,3.50
2023-04-15T21:14:50.331Z,3.00
2023-04-15T21:17:37.435Z,3.30
2023-04-15T21:20:24.498Z,2.90
2023-04-15T21:23:12.990Z,2.90
2023-04-15T21:26:00.220Z,2.97
2023-04-15T21:28:47.917Z,2.93
2023-04-15T21:31:34.895Z,2.73
2023-04-15T21:34:21.889Z,2.90
2023-04-15T21:37:08.862Z,3.17
2023-04-15T21:39:55.904Z,2.60
2023-04-15T21:42:42.907Z,2.90
2023-04-15T21:45:30.604Z,2.80
2023-04-15T21:48:17.658Z,3.03
2023-04-15T21:51:04.877Z,2.60
2023-04-15T21:53:52.622Z,2.37
2023-04-15T21:56:39.810Z,3.00
2023-04-15T21:59:27.100Z,2.90
2023-04-15T22:02:14.170Z,2.50
2023-04-15T22:05:01.242Z,3.00
2023-04-15T22:07:48.187Z,2.80
2023-04-15T22:10:37.792Z,3.20
2023-04-15T22:13:24.776Z,2.90
2023-04-15T22:16:11.881Z,3.20
2023-04-15T22:18:58.955Z,2.60
2023-04-15T22:21:45.976Z,3.20
2023-04-15T22:24:39.841Z,3.07
2023-04-15T22:27:27.941Z,2.70
2023-04-15T22:30:14.982Z,3.10
2023-04-15T22:33:02.252Z,2.83
2023-04-15T22:35:49.302Z,3.13
2023-04-15T22:38:36.273Z,2.80
2023-04-15T22:41:23.270Z,2.70
2023-04-15T22:44:10.432Z,2.97
2023-04-15T22:46:57.431Z,3.27
2023-04-15T22:49:44.917Z,3.00
2023-04-15T22:52:32.276Z,2.70
2023-04-15T22:55:19.259Z,3.03
2023-04-15T22:58:06.266Z,3.00
2023-04-15T23:00:53.253Z,2.80
2023-04-15T23:03:57.662Z,3.07
2023-04-15T23:06:47.356Z,2.67
2023-04-15T23:09:34.296Z,2.90
2023-04-15T23:12:21.474Z,3.20
2023-04-15T23:15:08.868Z,2.97
2023-04-15T23:17:56.005Z,2.60
2023-04-15T23:20:42.980Z,3.00
2023-04-15T23:23:29.982Z,2.83
2023-04-15T23:26:16.955Z,3.10
2023-04-15T23:29:03.976Z,2.80
2023-04-15T23:31:51.195Z,3.20
2023-04-15T23:34:38.186Z,3.23
2023-04-15T23:37:25.144Z,3.13
2023-04-15T23:40:12.639Z,3.27
2023-04-15T23:42:59.592Z,3.27
2023-04-15T23:45:46.651Z,3.20
2023-04-15T23:48:33.663Z,3.30
2023-04-15T23:51:20.745Z,3.20
2023-04-15T23:54:07.736Z,3.37
2023-04-15T23:56:54.760Z,3.30
2023-04-15T23:59:41.681Z,3.77
